Time;durP1;ratioP1;P1;durP2;ratioP2;P2;SDS_P1;SDS_P2;PMS_P1;PMS_P2;Temp;Humidity;BMP_temperature;BMP_pressure;BME280_temperature;BME280_humidity;BME280_pressure;Samples;Min_cycle;Max_cycle;Signal;HPM_P1;HPM_P2
2022/12/28 00:01:07;;;;;;;1.20;0.70;;;;;;;5.24;82.30;99443.19;4951254;28;20238;-57
2022/12/28 00:03:34;;;;;;;2.47;0.50;;;;;;;5.32;81.29;99433.16;4955502;28;20587;-59
2022/12/28 00:06:01;;;;;;;1.40;0.50;;;;;;;5.28;81.69;99432.53;4951186;28;20954;-58
2022/12/28 00:08:27;;;;;;;1.27;0.60;;;;;;;5.25;81.72;99421.56;4953316;28;20246;-57
2022/12/28 00:11:00;;;;;;;3.23;0.40;;;;;;;5.42;80.38;99413.53;4951006;28;20233;-58
2022/12/28 00:13:27;;;;;;;1.47;0.67;;;;;;;5.49;79.92;99423.50;4954804;28;20248;-58
2022/12/28 00:15:53;;;;;;;2.07;0.60;;;;;;;5.54;79.88;99436.97;4951935;28;20725;-59
2022/12/28 00:18:21;;;;;;;3.10;0.70;;;;;;;5.55;79.89;99433.47;4953463;28;20238;-59
2022/12/28 00:20:56;;;;;;;2.50;0.50;;;;;;;5.53;79.74;99427.56;4952570;28;21693;-57
2022/12/28 00:23:23;;;;;;;3.60;0.40;;;;;;;5.54;79.62;99422.28;4951192;28;20241;-59
2022/12/28 00:25:49;;;;;;;2.30;0.33;;;;;;;5.61;79.12;99426.16;4949716;28;20242;-58
2022/12/28 00:28:16;;;;;;;1.27;0.40;;;;;;;5.78;77.46;99419.03;4951554;28;20228;-60
2022/12/28 00:30:42;;;;;;;1.10;0.43;;;;;;;5.90;77.46;99414.78;4951861;28;20246;-59
2022/12/28 00:33:09;;;;;;;2.83;0.47;;;;;;;5.90;77.34;99417.38;4949564;28;20598;-60
2022/12/28 00:35:37;;;;;;;1.20;0.47;;;;;;;5.87;77.41;99430.53;4953679;28;20909;-59
2022/12/28 00:38:03;;;;;;;2.00;0.57;;;;;;;5.96;76.44;99416.13;4949828;28;20567;-59
2022/12/28 00:40:30;;;;;;;1.27;0.50;;;;;;;5.87;77.33;99412.41;4969880;28;20229;-58
2022/12/28 00:42:56;;;;;;;0.47;0.30;;;;;;;5.90;76.75;99407.03;4967307;28;20249;-59
2022/12/28 00:45:23;;;;;;;0.60;0.33;;;;;;;5.98;75.21;99409.09;4950347;28;20230;-59
2022/12/28 00:47:50;;;;;;;2.60;0.50;;;;;;;6.04;75.39;99403.53;4949580;28;20262;-59
2022/12/28 00:50:16;;;;;;;1.50;0.50;;;;;;;6.08;75.24;99399.81;4967217;28;20221;-59
2022/12/28 00:52:44;;;;;;;3.90;0.50;;;;;;;6.03;75.52;99396.69;4956919;28;20695;-59
2022/12/28 00:55:11;;;;;;;2.97;0.43;;;;;;;6.02;76.23;99379.47;4948016;28;20225;-59
2022/12/28 00:57:39;;;;;;;2.43;0.40;;;;;;;6.02;75.33;99385.50;4964454;28;20294;-59
2022/12/28 01:00:08;;;;;;;1.80;0.40;;;;;;;6.08;75.07;99376.47;4950434;28;20237;-58
2022/12/28 01:02:35;;;;;;;1.80;0.30;;;;;;;6.11;75.41;99370.28;4953194;28;20325;-58
2022/12/28 01:05:03;;;;;;;1.03;0.30;;;;;;;6.19;75.44;99376.59;4964455;28;20313;-59
2022/12/28 01:07:30;;;;;;;3.50;0.40;;;;;;;6.17;74.87;99370.66;4947586;28;20709;-60
2022/12/28 01:09:58;;;;;;;1.03;0.43;;;;;;;6.29;73.98;99365.59;4958514;28;20233;-58
2022/12/28 01:12:24;;;;;;;2.10;0.40;;;;;;;6.39;74.37;99363.19;4962476;28;20253;-58
2022/12/28 01:14:51;;;;;;;1.13;0.33;;;;;;;6.39;74.06;99355.41;4963668;28;20234;-61
2022/12/28 01:17:17;;;;;;;3.70;0.40;;;;;;;6.44;73.21;99368.88;4964806;28;20233;-58
2022/12/28 01:19:44;;;;;;;1.13;0.30;;;;;;;6.44;73.28;99361.09;4980833;28;20296;-59
2022/12/28 01:22:11;;;;;;;1.63;0.27;;;;;;;6.44;73.63;99353.31;4964080;28;20642;-59
2022/12/28 01:24:38;;;;;;;2.47;0.20;;;;;;;6.47;72.88;99356.53;4965018;28;20245;-58
2022/12/28 01:27:06;;;;;;;5.63;1.93;;;;;;;6.48;72.51;99353.03;4961918;28;20237;-58
2022/12/28 01:29:32;;;;;;;2.73;0.40;;;;;;;6.46;74.15;99347.09;4964890;28;20252;-59
2022/12/28 01:31:59;;;;;;;1.00;0.50;;;;;;;6.51;72.79;99339.00;4960477;28;20241;-59
2022/12/28 01:34:26;;;;;;;2.13;0.30;;;;;;;6.60;72.81;99340.94;4980901;28;20237;-59
2022/12/28 01:36:52;;;;;;;3.37;0.40;;;;;;;6.73;70.98;99330.56;4962734;28;20238;-60
2022/12/28 01:39:19;;;;;;;1.33;0.40;;;;;;;6.79;70.73;99342.25;4964368;28;20234;-60
2022/12/28 01:41:45;;;;;;;1.43;0.30;;;;;;;6.82;71.04;99323.06;4963889;28;20239;-59
2022/12/28 01:44:43;;;;;;;3.93;0.40;;;;;;;6.87;70.91;99331.34;4965210;28;20321;-59
2022/12/28 01:47:14;;;;;;;2.63;0.23;;;;;;;6.93;71.40;99328.28;4976693;28;20256;-59
2022/12/28 01:49:43;;;;;;;1.27;0.40;;;;;;;6.99;70.21;99335.63;4965874;28;20284;-58
2022/12/28 01:52:18;;;;;;;1.37;0.30;;;;;;;7.01;70.17;99351.09;4961480;28;20594;-58
2022/12/28 01:54:48;;;;;;;0.43;0.27;;;;;;;6.94;70.35;99342.91;4963861;28;20232;-59
2022/12/28 01:57:15;;;;;;;1.63;0.40;;;;;;;6.89;71.02;99335.47;4962948;28;20230;-60
2022/12/28 01:59:48;;;;;;;3.77;1.00;;;;;;;6.86;71.29;99333.09;4964526;28;20222;-58
2022/12/28 02:02:15;;;;;;;0.50;0.27;;;;;;;6.89;70.42;99322.50;4977927;28;20284;-58
2022/12/28 02:04:42;;;;;;;2.57;0.50;;;;;;;6.86;70.86;99322.72;4979937;28;20271;-60
2022/12/28 02:07:09;;;;;;;0.83;0.30;;;;;;;6.83;71.73;99317.75;4963083;28;20237;-60
2022/12/28 02:09:40;;;;;;;2.50;0.40;;;;;;;6.76;72.20;99314.75;4964259;28;20250;-59
2022/12/28 02:12:08;;;;;;;1.13;0.40;;;;;;;6.79;71.43;99311.09;4960486;28;20773;-59
2022/12/28 02:14:35;;;;;;;1.33;0.30;;;;;;;6.78;71.25;99301.66;4963823;28;20230;-59
2022/12/28 02:17:03;;;;;;;0.80;0.43;;;;;;;6.77;70.98;99287.88;4962168;28;20249;-59
2022/12/28 02:19:36;;;;;;;2.17;0.50;;;;;;;6.75;71.26;99283.72;4963697;28;20241;-59
2022/12/28 02:22:31;;;;;;;2.03;0.33;;;;;;;6.78;71.54;99280.91;4960248;28;20242;-59
2022/12/28 02:25:24;;;;;;;2.27;0.30;;;;;;;6.78;72.21;99286.94;4961308;28;20238;-59
2022/12/28 02:27:59;;;;;;;0.57;0.37;;;;;;;6.84;70.47;99285.66;4962348;28;20232;-58
2022/12/28 02:30:27;;;;;;;1.47;0.30;;;;;;;6.82;71.05;99282.34;4963453;28;20233;-59
2022/12/28 02:33:01;;;;;;;3.37;0.40;;;;;;;6.75;71.78;99260.38;4962003;28;20237;-59
2022/12/28 02:35:33;;;;;;;2.50;0.37;;;;;;;6.76;71.20;99260.28;4962906;28;20229;-59
2022/12/28 02:38:06;;;;;;;1.20;0.47;;;;;;;6.83;71.34;99254.66;4962721;28;20698;-59
2022/12/28 02:40:37;;;;;;;1.27;0.30;;;;;;;6.99;70.57;99251.75;4965458;28;20253;-58
2022/12/28 02:43:04;;;;;;;4.77;0.50;;;;;;;6.87;72.10;99256.91;4959760;28;20222;-59
2022/12/28 02:51:18;;;;;;;1.23;0.37;;;;;;;6.87;71.17;99253.47;4959723;28;20237;-59
2022/12/28 02:54:00;;;;;;;2.20;0.30;;;;;;;6.99;69.85;99254.34;4963135;28;20222;-59
2022/12/28 02:56:38;;;;;;;1.50;0.40;;;;;;;7.00;69.70;99249.03;4962793;28;20253;-59
2022/12/28 02:59:34;;;;;;;2.17;0.40;;;;;;;6.92;71.49;99252.19;4961441;28;22470;-59
2022/12/28 03:02:17;;;;;;;1.63;0.40;;;;;;;6.92;71.85;99238.38;4961517;28;20241;-60
2022/12/28 03:04:59;;;;;;;3.03;0.60;;;;;;;6.94;71.06;99239.09;4962760;28;20229;-60
2022/12/28 03:10:21;;;;;;;0.80;0.40;;;;;;;7.02;70.54;99228.16;4961461;28;20241;-59
2022/12/28 03:12:53;;;;;;;3.40;0.53;;;;;;;6.99;71.83;99234.41;4961493;28;20245;-59
2022/12/28 03:15:29;;;;;;;2.80;0.40;;;;;;;7.00;70.80;99240.44;4962133;28;21288;-59
2022/12/28 03:31:56;;;;;;;6.47;0.50;;;;;;;7.14;71.11;99200.47;4964745;28;20234;-59
2022/12/28 03:34:25;;;;;;;1.57;0.50;;;;;;;7.15;70.59;99202.94;4966760;28;20238;-59
2022/12/28 03:36:57;;;;;;;2.50;0.50;;;;;;;7.24;69.15;99197.06;4964680;28;20714;-60
2022/12/28 03:39:34;;;;;;;6.83;0.50;;;;;;;7.20;69.95;99195.66;4961814;28;20288;-59
2022/12/28 03:45:01;;;;;;;1.97;0.40;;;;;;;7.18;71.58;99181.94;4964659;28;20234;-59
2022/12/28 03:47:29;;;;;;;2.20;0.50;;;;;;;7.15;71.70;99179.59;4967021;28;20724;-59
2022/12/28 03:49:58;;;;;;;5.60;1.20;;;;;;;7.16;71.54;99177.81;4980497;28;20233;-59
2022/12/28 03:52:26;;;;;;;1.73;0.40;;;;;;;7.13;71.01;99176.28;4965861;28;20242;-60
2022/12/28 03:54:53;;;;;;;1.77;0.47;;;;;;;7.09;70.99;99180.03;4980262;28;20245;-60
2022/12/28 03:57:22;;;;;;;1.27;0.53;;;;;;;7.01;72.15;99179.78;4965876;28;20243;-59
2022/12/28 03:59:50;;;;;;;1.37;0.50;;;;;;;6.96;72.07;99172.31;4964718;28;21204;-59
2022/12/28 04:02:17;;;;;;;1.43;0.50;;;;;;;6.92;73.23;99176.09;4965789;28;20781;-59
2022/12/28 04:04:44;;;;;;;3.00;0.40;;;;;;;6.83;73.00;99169.81;4966491;28;20233;-59
2022/12/28 04:07:12;;;;;;;1.83;0.80;;;;;;;6.77;73.03;99160.75;4963571;28;20697;-59
2022/12/28 04:09:39;;;;;;;4.90;0.70;;;;;;;6.87;72.75;99157.47;4955296;28;20740;-59
2022/12/28 04:12:08;;;;;;;1.40;0.53;;;;;;;6.73;73.53;99168.84;4963217;28;20237;-58
2022/12/28 04:14:55;;;;;;;3.20;0.50;;;;;;;6.74;74.04;99165.31;4951735;28;20236;-59
2022/12/28 04:17:21;;;;;;;3.97;0.73;;;;;;;6.64;74.34;99178.13;4965568;28;20229;-59
2022/12/28 04:19:49;;;;;;;3.23;0.50;;;;;;;6.79;73.78;99186.56;4964202;28;20657;-59
2022/12/28 04:22:16;;;;;;;0.90;0.40;;;;;;;6.77;74.37;99171.13;4966803;28;20687;-59
2022/12/28 04:24:43;;;;;;;2.10;0.70;;;;;;;6.78;73.42;99179.72;4966122;28;20233;-59
2022/12/28 04:27:10;;;;;;;2.37;0.40;;;;;;;6.87;73.59;99167.84;4963190;28;20232;-58
2022/12/28 04:29:37;;;;;;;1.87;0.50;;;;;;;6.98;73.60;99172.22;4965339;28;20589;-58
2022/12/28 04:32:17;;;;;;;2.90;0.97;;;;;;;7.24;72.43;99170.25;5179385;23;20226;-58
2022/12/28 04:34:45;;;;;;;0.80;0.40;;;;;;;7.25;72.42;99169.31;4984314;28;20233;-58
2022/12/28 04:37:12;;;;;;;2.17;0.70;;;;;;;7.41;71.30;99169.00;4982330;28;20260;-59
2022/12/28 04:39:40;;;;;;;0.60;0.37;;;;;;;7.38;71.52;99146.66;4976857;28;20284;-58
2022/12/28 04:42:07;;;;;;;2.50;0.60;;;;;;;7.43;71.23;99158.47;4983345;28;20741;-58
2022/12/28 04:44:33;;;;;;;2.93;0.60;;;;;;;7.35;71.76;99159.06;4986953;28;20791;-58
2022/12/28 04:47:00;;;;;;;2.47;0.90;;;;;;;7.32;70.56;99146.31;4995712;23;20301;-63
2022/12/28 04:49:26;;;;;;;3.40;0.60;;;;;;;7.23;72.35;99158.22;4986526;28;20319;-63
2022/12/28 04:51:53;;;;;;;2.77;0.70;;;;;;;7.17;73.01;99154.34;4984285;28;20228;-63
2022/12/28 04:54:19;;;;;;;2.37;0.57;;;;;;;7.15;71.56;99151.03;4986093;28;20237;-63
2022/12/28 04:56:47;;;;;;;1.30;0.50;;;;;;;7.06;72.24;99144.75;4984221;28;20233;-63
2022/12/28 04:59:14;;;;;;;2.90;0.40;;;;;;;7.04;71.88;99145.81;4985366;28;20237;-63
2022/12/28 05:01:40;;;;;;;2.27;0.40;;;;;;;7.00;71.78;99146.97;4986584;28;20244;-63
2022/12/28 05:04:07;;;;;;;3.30;0.80;;;;;;;6.91;74.21;99151.06;4983722;28;20240;-63
2022/12/28 05:06:34;;;;;;;3.13;0.70;;;;;;;7.07;71.72;99141.19;4986252;28;20446;-63
2022/12/28 05:09:00;;;;;;;4.00;0.60;;;;;;;7.14;71.69;99144.19;4983202;28;20225;-63
2022/12/28 05:11:29;;;;;;;3.27;0.60;;;;;;;7.08;71.96;99136.84;4986370;28;20236;-63
2022/12/28 05:13:57;;;;;;;1.93;0.40;;;;;;;6.96;72.77;99138.59;4983792;28;20641;-63
2022/12/28 05:16:25;;;;;;;5.73;0.60;;;;;;;6.91;72.88;99130.31;4984726;28;20236;-63
2022/12/28 05:18:52;;;;;;;2.03;0.57;;;;;;;6.93;73.60;99146.59;4981549;28;20597;-63
2022/12/28 05:21:21;;;;;;;1.27;0.60;;;;;;;6.90;73.30;99139.03;4984456;28;20248;-63
2022/12/28 05:23:48;;;;;;;1.37;0.40;;;;;;;6.97;72.02;99132.44;4983326;28;20225;-63
2022/12/28 05:26:17;;;;;;;3.07;0.80;;;;;;;6.96;72.72;99146.38;4985288;28;20689;-63
2022/12/28 05:28:44;;;;;;;1.73;0.53;;;;;;;7.12;73.51;99151.25;4985650;28;20280;-63
2022/12/28 05:31:14;;;;;;;1.17;0.50;;;;;;;7.27;70.65;99143.25;4982663;28;20287;-63
2022/12/28 05:33:41;;;;;;;3.60;0.60;;;;;;;7.08;72.21;99142.03;4985927;28;20225;-63
2022/12/28 05:36:11;;;;;;;1.83;0.60;;;;;;;6.94;72.16;99130.94;4981773;28;20237;-63
2022/12/28 05:38:38;;;;;;;2.00;0.60;;;;;;;6.91;72.48;99110.41;4985517;28;20669;-63
2022/12/28 05:41:06;;;;;;;2.80;0.60;;;;;;;6.92;73.32;99124.19;4982834;28;20259;-63
2022/12/28 05:43:33;;;;;;;3.03;0.87;;;;;;;6.99;72.01;99117.59;4984189;28;20229;-63
2022/12/28 05:46:02;;;;;;;3.67;0.63;;;;;;;6.95;73.75;99129.16;4982590;28;20237;-63
2022/12/28 05:48:32;;;;;;;1.63;0.70;;;;;;;6.91;74.00;99125.97;4985682;28;20233;-63
2022/12/28 05:51:00;;;;;;;4.80;2.17;;;;;;;6.97;74.16;99113.47;4983234;28;20241;-63
2022/12/28 05:53:28;;;;;;;2.43;0.40;;;;;;;7.02;73.51;99124.34;4983726;28;20291;-63
2022/12/28 05:56:00;;;;;;;3.90;0.70;;;;;;;7.14;71.94;99119.97;4983151;28;20229;-63
2022/12/28 05:58:27;;;;;;;2.47;0.73;;;;;;;7.25;70.46;99117.38;4984653;28;20283;-63
2022/12/28 06:00:53;;;;;;;6.23;2.73;;;;;;;7.36;70.96;99116.59;4982491;28;20589;-63
2022/12/28 06:03:20;;;;;;;11.90;5.73;;;;;;;7.35;71.22;99112.34;4983105;28;20264;-63
2022/12/28 06:05:48;;;;;;;5.50;1.07;;;;;;;7.32;71.86;99099.59;4982229;28;20280;-63
2022/12/28 06:08:14;;;;;;;9.83;8.80;;;;;;;7.32;70.75;99102.19;4984353;28;20225;-63
2022/12/28 06:10:41;;;;;;;6.20;3.40;;;;;;;7.20;71.79;99103.94;4985095;28;21000;-63
2022/12/28 06:13:07;;;;;;;2.60;0.60;;;;;;;7.13;72.16;99108.78;4980680;28;20652;-63
2022/12/28 06:15:34;;;;;;;27.53;22.20;;;;;;;7.13;72.63;99106.19;4984375;28;20284;-63
2022/12/28 06:18:00;;;;;;;5.23;3.60;;;;;;;7.00;73.33;99110.66;4982275;28;20250;-63
2022/12/28 06:20:27;;;;;;;1.30;1.00;;;;;;;7.09;72.75;99115.16;4985157;28;20803;-63
2022/12/28 06:22:55;;;;;;;2.17;0.53;;;;;;;7.18;71.53;99095.44;4983099;28;20755;-63
2022/12/28 06:25:21;;;;;;;5.90;2.67;;;;;;;7.16;72.49;99089.53;4984572;28;20623;-63
2022/12/28 06:27:48;;;;;;;1.77;1.00;;;;;;;7.13;72.43;99094.94;4982452;28;20763;-63
2022/12/28 06:30:14;;;;;;;1.33;0.80;;;;;;;7.16;71.92;99095.56;4984446;28;20721;-63
2022/12/28 06:32:41;;;;;;;2.30;0.77;;;;;;;7.26;71.19;99084.47;4984932;28;20237;-63
2022/12/28 06:35:08;;;;;;;2.43;0.80;;;;;;;7.26;71.52;99074.09;4982288;28;20256;-63
2022/12/28 06:37:35;;;;;;;2.87;1.20;;;;;;;7.35;71.22;99078.56;4984083;28;20232;-63
2022/12/28 06:40:03;;;;;;;1.83;1.27;;;;;;;7.33;71.63;99077.88;4982096;28;20399;-63
2022/12/28 06:42:29;;;;;;;3.87;0.80;;;;;;;7.35;70.56;99089.78;4985139;28;20292;-63
2022/12/28 06:44:56;;;;;;;2.53;1.00;;;;;;;7.36;70.72;99075.84;4982748;28;20243;-63
2022/12/28 06:47:22;;;;;;;4.20;0.63;;;;;;;7.35;70.51;99078.56;4983375;28;20229;-63
2022/12/28 06:49:49;;;;;;;2.20;0.60;;;;;;;7.34;70.78;99076.91;4982432;28;20240;-64
2022/12/28 06:52:15;;;;;;;1.80;0.93;;;;;;;7.34;70.58;99077.72;4984216;28;20319;-63
2022/12/28 06:54:42;;;;;;;1.83;0.50;;;;;;;7.33;71.26;99072.66;4984748;28;20232;-63
2022/12/28 06:57:10;;;;;;;5.90;0.80;;;;;;;7.31;71.11;99066.78;4981867;28;20559;-63
2022/12/28 06:59:36;;;;;;;1.53;0.47;;;;;;;7.37;70.03;99069.69;4984554;28;20237;-63
2022/12/28 07:02:03;;;;;;;5.17;0.80;;;;;;;7.51;70.63;99066.00;4978111;28;20303;-63
2022/12/28 07:04:29;;;;;;;4.30;0.53;;;;;;;7.54;69.43;99073.56;4984322;28;20240;-63
2022/12/28 07:06:56;;;;;;;0.53;0.30;;;;;;;7.63;68.19;99055.59;4985631;28;20225;-63
2022/12/28 07:09:23;;;;;;;1.37;0.60;;;;;;;7.66;68.80;99057.97;4985051;28;20783;-63
2022/12/28 07:11:50;;;;;;;6.90;3.40;;;;;;;7.73;68.36;99050.53;4985267;28;20728;-63
2022/12/28 07:14:18;;;;;;;8.00;5.07;;;;;;;7.77;69.34;99068.34;4987928;28;20229;-64
2022/12/28 07:16:45;;;;;;;3.40;0.80;;;;;;;7.79;68.41;99065.63;4987970;28;20224;-64
2022/12/28 07:19:17;;;;;;;3.00;0.53;;;;;;;7.89;68.63;99071.75;4985416;28;20248;-64
2022/12/28 07:21:44;;;;;;;0.67;0.60;;;;;;;7.91;68.70;99069.84;5002714;28;20724;-63
2022/12/28 07:24:10;;;;;;;1.93;0.70;;;;;;;7.95;67.27;99065.22;4985374;28;20228;-63
2022/12/28 07:26:37;;;;;;;1.50;0.60;;;;;;;7.90;67.51;99050.00;4987805;28;20275;-63
2022/12/28 07:29:06;;;;;;;2.57;0.70;;;;;;;7.91;67.05;99053.41;4985154;28;20299;-63
2022/12/28 07:31:36;;;;;;;1.87;0.80;;;;;;;7.94;66.58;99058.38;4987718;28;20241;-63
2022/12/28 07:34:03;;;;;;;3.53;0.50;;;;;;;8.12;66.25;99059.50;4984947;28;20238;-63
2022/12/28 07:36:32;;;;;;;2.43;0.50;;;;;;;8.01;67.22;99049.13;4986977;28;20257;-63
2022/12/28 07:38:59;;;;;;;2.57;0.73;;;;;;;8.07;66.50;99045.19;4984165;28;20629;-63
2022/12/28 07:41:29;;;;;;;1.80;0.40;;;;;;;8.10;66.55;99038.00;4987727;28;20233;-63
2022/12/28 07:43:58;;;;;;;2.20;0.60;;;;;;;8.13;66.38;99031.69;4983136;28;20228;-63
2022/12/28 07:46:27;;;;;;;3.53;0.50;;;;;;;8.19;65.66;99035.59;4986978;28;20232;-63
2022/12/28 07:48:56;;;;;;;0.63;0.40;;;;;;;8.15;65.55;99026.38;4985103;28;20279;-63
2022/12/28 07:51:25;;;;;;;1.13;0.40;;;;;;;8.16;66.45;99033.25;4986578;28;20237;-63
2022/12/28 07:53:53;;;;;;;1.30;0.40;;;;;;;8.15;66.13;99032.41;4984309;28;20307;-63
2022/12/28 07:56:22;;;;;;;1.73;0.60;;;;;;;8.18;65.53;99039.13;4987409;28;20295;-64
2022/12/28 07:58:49;;;;;;;1.57;0.53;;;;;;;8.14;67.09;99035.94;4985481;28;20232;-64
2022/12/28 08:01:18;;;;;;;1.67;0.47;;;;;;;8.20;65.79;99024.25;4986624;28;20582;-64
2022/12/28 08:03:45;;;;;;;1.00;0.50;;;;;;;8.20;65.33;99017.25;4986938;28;20236;-63
2022/12/28 08:06:17;;;;;;;2.77;0.57;;;;;;;8.23;65.73;99037.00;4982801;28;20225;-64
2022/12/28 08:08:45;;;;;;;1.03;0.47;;;;;;;8.22;65.08;99023.16;4987489;28;20240;-64
2022/12/28 08:11:14;;;;;;;1.77;0.60;;;;;;;8.25;65.25;99024.69;4984616;28;20748;-64
2022/12/28 08:13:42;;;;;;;2.90;0.60;;;;;;;8.30;65.39;99032.09;4986330;28;20237;-64
2022/12/28 08:16:11;;;;;;;2.20;0.47;;;;;;;8.38;65.93;99019.28;4983722;28;20574;-64
2022/12/28 08:18:39;;;;;;;1.63;0.40;;;;;;;8.47;65.18;99036.75;4986021;28;20570;-64
2022/12/28 08:21:08;;;;;;;2.95;0.50;;;;;;;8.52;64.31;99024.19;4984374;28;20989;-63
2022/12/28 08:23:39;;;;;;;2.37;0.50;;;;;;;8.53;64.54;99023.25;4985300;28;20235;-63
2022/12/28 08:26:08;;;;;;;1.87;0.40;;;;;;;8.61;63.78;99009.59;4983882;28;20244;-63
2022/12/28 08:28:35;;;;;;;3.73;3.37;;;;;;;8.62;65.13;99019.03;4986803;28;20285;-63
2022/12/28 08:31:06;;;;;;;1.70;0.57;;;;;;;8.59;65.42;99014.09;4984163;28;20237;-63
2022/12/28 08:33:32;;;;;;;3.03;0.40;;;;;;;8.61;64.49;99006.97;4986975;28;20229;-63
2022/12/28 08:35:59;;;;;;;2.50;0.70;;;;;;;8.67;64.37;99016.88;4984963;28;20308;-64
2022/12/28 08:38:25;;;;;;;1.20;0.50;;;;;;;8.71;64.20;99007.06;4984842;28;20229;-64
2022/12/28 08:40:56;;;;;;;0.97;0.40;;;;;;;8.78;63.40;99010.78;4984325;28;20709;-63
2022/12/28 08:43:23;;;;;;;1.83;0.33;;;;;;;8.81;62.67;98994.91;4986293;28;20261;-63
2022/12/28 08:45:57;;;;;;;3.57;0.80;;;;;;;8.84;63.86;99009.44;4984621;28;20232;-63
2022/12/28 08:48:23;;;;;;;2.23;0.57;;;;;;;8.87;63.10;98996.16;4985562;28;20702;-63
2022/12/28 08:50:50;;;;;;;0.60;0.40;;;;;;;8.89;63.41;99012.47;4983793;28;20242;-63
2022/12/28 08:53:16;;;;;;;9.20;0.73;;;;;;;8.97;62.61;98989.22;4984269;28;20229;-63
2022/12/28 08:55:43;;;;;;;1.07;0.60;;;;;;;8.92;62.45;98998.38;4985300;28;20804;-63
2022/12/28 08:58:11;;;;;;;1.10;0.40;;;;;;;8.97;63.09;98994.41;4983149;28;20235;-63
2022/12/28 09:00:37;;;;;;;1.23;0.47;;;;;;;9.01;62.03;98989.75;4986793;28;20230;-63
2022/12/28 09:03:04;;;;;;;2.17;0.57;;;;;;;9.05;62.07;98983.34;4980667;28;21100;-64
2022/12/28 09:05:30;;;;;;;1.13;0.53;;;;;;;9.11;63.46;98992.41;4985432;28;20776;-64
2022/12/28 09:07:57;;;;;;;5.30;1.20;;;;;;;9.10;62.67;98991.56;4983767;28;20227;-64
2022/12/28 09:10:24;;;;;;;2.90;0.70;;;;;;;9.14;62.68;98992.16;4985957;28;20746;-63
2022/12/28 09:12:51;;;;;;;2.50;1.40;;;;;;;9.21;62.59;98979.41;4983968;28;20237;-63
2022/12/28 09:15:19;;;;;;;3.27;1.83;;;;;;;9.23;62.07;98983.53;4985392;28;20241;-63
2022/12/28 09:17:48;;;;;;;2.50;0.50;;;;;;;9.23;61.60;98986.16;4983389;28;20241;-64
2022/12/28 09:20:15;;;;;;;1.43;0.50;;;;;;;9.29;62.08;98988.22;4985572;28;20228;-64
2022/12/28 09:22:41;;;;;;;3.23;0.43;;;;;;;9.29;62.18;98987.38;4985031;28;20230;-64
2022/12/28 09:25:08;;;;;;;1.17;0.50;;;;;;;9.36;61.96;98995.50;4983337;28;20266;-63
2022/12/28 09:27:35;;;;;;;0.80;0.40;;;;;;;9.37;61.77;99002.34;4985060;28;20726;-64
2022/12/28 09:30:02;;;;;;;1.23;0.63;;;;;;;9.48;61.16;98994.44;4982623;28;20256;-64
2022/12/28 09:32:30;;;;;;;3.63;2.30;;;;;;;9.41;62.71;98990.72;4985519;28;20233;-64
2022/12/28 09:34:56;;;;;;;1.50;0.60;;;;;;;9.34;62.22;98998.22;4983288;28;20237;-63
2022/12/28 09:37:23;;;;;;;1.67;0.57;;;;;;;9.34;61.76;98993.00;4984858;28;20233;-63
2022/12/28 09:39:49;;;;;;;0.80;0.40;;;;;;;9.46;60.83;98998.94;4983136;28;20242;-64
2022/12/28 09:42:22;;;;;;;1.37;0.50;;;;;;;9.50;61.29;99007.31;4984515;28;20237;-64
2022/12/28 09:44:56;;;;;;;3.20;0.63;;;;;;;9.48;60.84;98999.63;4982329;28;20233;-63
2022/12/28 09:47:29;;;;;;;0.73;0.50;;;;;;;9.58;60.58;98991.81;4984655;28;20289;-63
2022/12/28 09:50:07;;;;;;;2.10;0.70;;;;;;;9.60;62.64;98998.53;4983295;28;20232;-64
2022/12/28 09:52:36;;;;;;;0.67;0.43;;;;;;;9.72;61.75;98994.03;4984611;28;20246;-64
2022/12/28 09:55:12;;;;;;;1.40;0.40;;;;;;;9.92;60.72;99003.63;4982058;28;20260;-64
2022/12/28 09:57:43;;;;;;;2.37;0.60;;;;;;;10.00;60.72;99001.16;4984815;28;20268;-64
2022/12/28 10:00:16;;;;;;;2.33;0.80;;;;;;;9.80;60.59;99005.56;4981292;28;20231;-64
2022/12/28 10:02:47;;;;;;;1.20;0.60;;;;;;;9.90;60.32;99004.59;4984721;28;20244;-64
2022/12/28 10:05:15;;;;;;;2.27;0.40;;;;;;;9.95;59.70;99009.41;4981383;28;20234;-64
2022/12/28 10:07:42;;;;;;;2.00;0.60;;;;;;;10.00;59.80;98998.56;4985366;28;20229;-64
2022/12/28 10:10:13;;;;;;;2.40;0.50;;;;;;;10.06;59.68;99003.22;4982620;28;20245;-64
2022/12/28 10:12:42;;;;;;;1.47;0.50;;;;;;;10.07;58.98;98997.06;4985519;28;20382;-64
2022/12/28 10:15:11;;;;;;;7.47;4.00;;;;;;;10.19;59.34;98995.94;4982797;28;20822;-64
2022/12/28 10:17:38;;;;;;;4.77;0.63;;;;;;;10.33;59.34;98991.25;4984410;28;20276;-64
2022/12/28 10:20:07;;;;;;;4.10;0.50;;;;;;;10.22;59.10;98999.22;4982511;28;20232;-64
2022/12/28 10:22:39;;;;;;;2.00;0.80;;;;;;;10.07;59.14;98998.84;4984230;28;20456;-64
2022/12/28 10:25:13;;;;;;;1.67;0.50;;;;;;;10.08;59.10;98983.03;4981576;28;20248;-64
2022/12/28 10:27:40;;;;;;;0.83;0.40;;;;;;;9.87;60.94;98991.84;4983544;28;20241;-64
2022/12/28 10:30:15;;;;;;;1.30;0.60;;;;;;;9.91;60.63;98987.19;4981411;28;20720;-64
2022/12/28 10:32:49;;;;;;;0.70;0.40;;;;;;;9.90;59.72;98983.75;4985123;28;20232;-64
2022/12/28 10:35:23;;;;;;;1.30;0.57;;;;;;;9.82;60.42;98970.56;4981805;28;20689;-64
2022/12/28 10:37:51;;;;;;;1.57;0.57;;;;;;;9.89;61.59;98982.09;4982613;28;20241;-64
2022/12/28 10:40:24;;;;;;;0.80;0.50;;;;;;;10.03;59.73;98975.66;4983062;28;20225;-64
2022/12/28 10:42:54;;;;;;;1.77;0.60;;;;;;;10.05;61.52;98972.88;4982437;28;20243;-64
2022/12/28 10:45:24;;;;;;;2.63;0.63;;;;;;;10.15;59.10;98962.44;4984261;28;20242;-64
2022/12/28 10:47:53;;;;;;;1.57;0.57;;;;;;;10.18;61.20;98954.31;4981230;28;20288;-64
2022/12/28 10:50:40;;;;;;;1.33;0.83;;;;;;;10.06;60.61;98963.28;4984251;28;20325;-64
2022/12/28 10:53:16;;;;;;;1.97;0.60;;;;;;;10.03;60.69;98938.31;4981953;28;20570;-64
2022/12/28 10:55:43;;;;;;;3.47;0.97;;;;;;;10.07;61.15;98946.69;4982955;28;20233;-64
2022/12/28 10:58:20;;;;;;;0.87;0.57;;;;;;;10.12;61.01;98944.44;4986172;28;20233;-64
2022/12/28 11:00:55;;;;;;;1.60;0.90;;;;;;;10.23;61.56;98941.69;4981629;28;20325;-64
2022/12/28 11:03:27;;;;;;;2.03;0.90;;;;;;;10.30;60.75;98939.34;4984003;28;20244;-64
2022/12/28 11:06:11;;;;;;;2.40;0.80;;;;;;;10.26;60.15;98930.16;4982487;28;20233;-64
2022/12/28 11:08:41;;;;;;;1.97;1.10;;;;;;;10.32;60.72;98925.19;4983789;28;20239;-64
2022/12/28 11:11:17;;;;;;;3.33;0.90;;;;;;;10.18;61.36;98930.84;4980052;28;20248;-64
2022/12/28 11:13:46;;;;;;;2.30;1.17;;;;;;;10.21;61.19;98914.91;4984835;28;20225;-64
2022/12/28 11:16:14;;;;;;;2.30;1.10;;;;;;;10.10;61.50;98921.13;4982405;28;20340;-64
2022/12/28 11:18:41;;;;;;;0.83;0.47;;;;;;;9.99;60.14;98910.84;4984451;28;20237;-64
2022/12/28 11:21:11;;;;;;;2.77;0.97;;;;;;;9.81;61.93;98915.97;4982266;28;20246;-64
2022/12/28 11:23:39;;;;;;;4.60;0.60;;;;;;;9.84;61.39;98902.66;4984175;28;20245;-64
2022/12/28 11:26:11;;;;;;;1.23;0.50;;;;;;;9.90;60.89;98902.91;4981930;28;20237;-64
2022/12/28 11:28:40;;;;;;;2.63;0.50;;;;;;;9.95;61.13;98904.28;4984659;28;20684;-64
2022/12/28 11:31:09;;;;;;;2.10;0.50;;;;;;;10.16;59.88;98904.91;4981695;28;20240;-64
2022/12/28 11:33:41;;;;;;;1.27;0.63;;;;;;;10.40;61.04;98898.44;4985080;28;20265;-64
2022/12/28 11:36:14;;;;;;;1.13;0.57;;;;;;;10.41;60.95;98910.50;4981513;28;20237;-64
2022/12/28 11:38:44;;;;;;;1.40;0.50;;;;;;;10.53;59.24;98908.53;4984312;28;20237;-64
2022/12/28 11:41:11;;;;;;;1.30;0.80;;;;;;;10.50;60.02;98910.63;4980276;28;20242;-64
2022/12/28 11:43:47;;;;;;;2.60;0.50;;;;;;;10.51;60.46;98905.25;4983633;28;20234;-64
2022/12/28 11:46:39;;;;;;;4.70;0.83;;;;;;;10.53;59.03;98898.09;4981073;28;20235;-64
2022/12/28 11:49:24;;;;;;;0.97;0.50;;;;;;;10.65;61.07;98900.53;4981199;28;20226;-64
2022/12/28 11:52:26;;;;;;;2.17;0.60;;;;;;;10.63;59.12;98887.59;4981407;28;21081;-64
2022/12/28 11:54:55;;;;;;;0.87;0.60;;;;;;;10.64;59.39;98889.25;4984069;28;20239;-64
2022/12/28 11:57:35;;;;;;;1.20;0.60;;;;;;;10.61;59.09;98873.88;4986247;28;20614;-64
2022/12/28 12:00:46;;;;;;;1.03;0.63;;;;;;;10.70;59.40;98882.63;4984884;28;20284;-64
2022/12/28 12:03:13;;;;;;;3.60;0.90;;;;;;;10.88;58.03;98864.38;4984302;28;20281;-64
2022/12/28 12:05:52;;;;;;;1.20;0.60;;;;;;;10.80;59.12;98870.34;4987371;28;20234;-64
2022/12/28 12:08:41;;;;;;;1.20;0.67;;;;;;;11.05;58.15;98860.97;4984787;28;20225;-64
2022/12/28 12:11:30;;;;;;;1.60;0.70;;;;;;;11.06;56.62;98853.97;4984530;28;20339;-64
2022/12/28 12:14:00;;;;;;;2.60;0.70;;;;;;;10.88;57.71;98840.88;4984506;28;20241;-64
2022/12/28 12:16:33;;;;;;;2.30;0.70;;;;;;;11.01;57.37;98838.72;4986540;28;20234;-64
2022/12/28 12:19:02;;;;;;;1.20;0.70;;;;;;;10.87;58.37;98840.06;4983793;28;20245;-64